Latest Weather Observations for Groote Eylandt Airport

IDD60801

Issued at 11:01 pm CST Wednesday 29 July 2015 (issued every 30 minutes, with the page automatically refreshed every 10 minutes)

About weather observations | Map of weather stations | Latest weather observations for NT | Other Formats
Station Details ID: 014518 Name: GROOTE EYLANDT AIRPORT Lat: -13.97 Lon: 136.46 Height: 13.7 m
Data from the previous 72 hours. | See also: Recent months at Groote Eylandt Airport
Date/Time
CST
Temp
°C
App
Temp
°C
Dew
Point
Rel
Hum
%
Delta-T
°C
Wind Press
QNH
hPa
Press
MSL
hPa
Rain
since 9 am
mm
Dir
 
Spd
km/h
Gust
km/h
Spd
kts
Gust
kts
29/11:00pm 21.0 23.2 19.3 90 1.1 SSE 6 6 3 3 1018.4 1018.4 0.0
29/10:30pm 21.5 23.8 19.4 88 1.3 SE 6 7 3 4 1018.5 1018.5 0.0
29/10:00pm 22.1 24.5 19.6 86 1.6 SE 6 9 3 5 1018.7 1018.7 0.0
29/09:30pm 22.2 24.6 19.6 85 1.7 SE 6 7 3 4 1018.6 1018.6 0.0
29/09:00pm 22.5 25.4 19.9 85 1.7 ESE 4 9 2 5 1018.6 1018.6 0.0
29/08:30pm 22.8 25.2 20.0 84 1.8 SE 7 11 4 6 1018.4 1018.4 0.0
29/08:00pm 23.2 25.2 20.0 82 2.1 SE 9 13 5 7 1018.1 1018.1 0.0
29/07:30pm 23.8 26.2 20.1 80 2.4 SE 7 15 4 8 1017.8 1017.8 0.0
29/07:00pm 24.3 26.2 19.8 76 2.9 SE 9 15 5 8 1017.5 1017.5 0.0
29/06:30pm 24.9 25.9 19.5 72 3.5 ESE 13 22 7 12 1017.2 1017.2 0.0
29/06:00pm 25.7 26.6 19.3 67 4.1 ESE 13 20 7 11 1016.8 1016.8 0.0
29/05:30pm 26.6 26.1 19.0 63 4.9 ESE 20 30 11 16 1016.5 1016.5 0.0
29/05:00pm 26.5 26.1 18.9 63 4.9 ESE 19 30 10 16 1016.4 1016.4 0.0
29/04:30pm 27.7 27.4 19.5 61 5.3 ESE 20 32 11 17 1016.3 1016.3 0.0
29/04:00pm 27.6 27.6 19.7 62 5.1 ESE 19 33 10 18 1016.1 1016.1 0.0
29/03:30pm 28.0 27.5 19.0 58 5.8 ESE 20 32 11 17 1016.2 1016.2 0.0
29/03:00pm 27.5 26.3 18.5 58 5.7 ESE 22 33 12 18 1016.3 1016.3 0.0
29/02:30pm 28.3 27.0 19.0 57 6.0 E 24 33 13 18 1016.3 1016.3 0.0
29/02:00pm 28.5 27.0 18.6 55 6.4 ESE 24 41 13 22 1016.5 1016.5 0.0
29/01:30pm 27.9 27.1 18.0 55 6.3 ESE 19 30 10 16 1016.9 1016.9 0.0
29/01:00pm 29.0 27.9 17.8 50 7.1 ESE 20 32 11 17 1017.2 1017.2 0.0
29/12:30pm 28.5 26.9 17.4 51 7.0 ESE 22 33 12 18 1017.5 1017.5 0.0
29/12:00pm 28.2 26.9 16.8 50 7.1 ESE 19 32 10 17 1018.0 1018.0 0.0
29/11:30am 28.4 27.6 17.0 50 7.1 ESE 17 26 9 14 1018.3 1018.3 0.0
29/11:00am 27.8 25.4 16.4 50 7.1 ESE 24 41 13 22 1018.6 1018.6 0.0
29/10:30am 27.2 25.5 16.2 51 6.8 ESE 20 32 11 17 1018.8 1018.8 0.0
29/10:00am 26.9 25.3 15.9 51 6.7 ESE 19 33 10 18 1018.9 1018.9 0.0
29/09:30am 26.3 25.0 15.7 52 6.5 ESE 17 30 9 16 1018.9 1018.9 0.0
29/09:00am 25.5 24.6 15.8 55 5.9 SE 15 28 8 15 1018.7 1018.7 0.0
29/08:30am 24.8 23.6 16.0 58 5.3 ESE 17 28 9 15 1018.5 1018.5 0.0
29/08:00am 24.0 23.9 16.0 61 4.9 SE 11 17 6 9 1018.2 1018.2 0.0
29/07:30am 22.9 23.1 15.7 64 4.3 SE 9 13 5 7 1017.7 1017.7 0.0
29/07:00am 22.0 22.6 15.4 66 3.9 SSE 6 11 3 6 1017.5 1017.5 0.0
29/06:30am 22.4 22.4 15.3 64 4.2 SE 9 17 5 9 1017.2 1017.2 0.0
29/06:00am 22.6 23.0 15.4 64 4.3 SE 7 15 4 8 1016.9 1016.9 0.0
29/05:30am 22.8 22.5 15.4 63 4.4 SE 11 15 6 8 1016.8 1016.8 0.0
29/05:00am 22.9 22.5 15.2 62 4.6 SE 11 22 6 12 1016.9 1016.9 0.0
29/04:30am 23.0 22.8 15.6 63 4.4 SE 11 17 6 9 1016.9 1016.9 0.0
29/04:00am 23.0 23.0 15.3 62 4.6 SE 9 17 5 9 1016.9 1016.9 0.0
29/03:30am 22.8 22.9 15.4 63 4.4 SE 9 15 5 8 1017.0 1017.0 0.0
29/03:00am 22.6 23.0 16.2 67 3.9 SE 9 15 5 8 1017.0 1017.0 0.0
29/02:30am 21.9 22.6 15.7 68 3.7 SE 6 7 3 4 1017.3 1017.3 0.0
29/02:00am 21.7 22.4 15.5 68 3.7 SE 6 9 3 5 1017.4 1017.4 0.0
29/01:30am 22.0 22.7 16.1 69 3.6 ESE 7 11 4 6 1017.6 1017.6 0.0
29/01:00am 20.1 21.1 16.3 79 2.3 ESE 6 9 3 5 1017.9 1017.9 0.0
29/12:30am 17.8 19.2 15.4 86 1.4 E 2 7 1 4 1018.1 1018.1 0.0
29/12:00am 17.8 19.5 15.1 84 1.6 CALM 0 0 0 0 1018.3 1018.3 0.0
 
Date/Time
CST
Temp
°C
App
Temp
°C
Dew
Point
Rel
Hum
%
Delta-T
°C
Wind Press
QNH
hPa
Press
MSL
hPa
Rain
since 9 am
mm
Dir
 
Spd
km/h
Gust
km/h
Spd
kts
Gust
kts
28/11:30pm 18.6 20.3 15.3 81 1.9 CALM 0 0 0 0 1018.5 1018.5 0.0
28/11:00pm 18.7 20.5 15.4 81 1.9 CALM 0 0 0 0 1018.9 1018.9 0.0
28/10:30pm 19.0 20.7 15.1 78 2.3 CALM 0 0 0 0 1019.2 1019.2 0.0
28/10:00pm 19.6 21.3 15.3 76 2.5 CALM 0 0 0 0 1019.3 1019.3 0.0
28/09:30pm 20.6 21.7 15.6 73 3.0 ESE 4 9 2 5 1019.4 1019.4 0.0
28/09:00pm 21.2 22.1 16.0 72 3.1 ESE 6 11 3 6 1019.4 1019.4 0.0
28/08:30pm 21.5 22.2 16.0 71 3.3 SE 7 13 4 7 1019.4 1019.4 0.0
28/08:00pm 21.8 22.1 16.1 70 3.4 SE 9 17 5 9 1019.2 1019.2 0.0
28/07:30pm 22.0 22.3 16.1 69 3.6 SE 9 11 5 6 1018.8 1018.8 0.0
28/07:00pm 22.4 22.3 16.0 67 3.9 SE 11 19 6 10 1018.5 1018.5 0.0
28/06:30pm 23.1 22.7 16.2 65 4.2 SSE 13 19 7 10 1018.1 1018.1 0.0
28/06:00pm 24.0 24.0 16.3 62 4.7 SE 11 19 6 10 1017.9 1017.9 0.0
28/05:30pm 25.2 25.5 16.1 57 5.6 SSE 9 17 5 9 1017.5 1017.5 0.0
28/05:00pm 25.9 25.6 16.5 56 5.8 ESE 13 19 7 10 1017.1 1017.1 0.0
28/04:30pm 26.1 25.4 16.4 55 6.0 SE 15 20 8 11 1016.9 1016.9 0.0
28/04:00pm 26.4 25.7 16.3 53 6.2 SE 15 22 8 12 1016.8 1016.8 0.0
28/03:30pm 26.6 25.8 16.2 52 6.4 SE 15 24 8 13 1016.7 1016.7 0.0
28/03:00pm 26.4 24.9 15.4 50 6.7 SE 17 32 9 17 1016.8 1016.8 0.0
28/02:30pm 26.5 25.1 15.5 50 6.7 SSE 17 32 9 17 1017.0 1017.0 0.0
28/02:00pm 26.8 25.1 15.8 51 6.7 SSE 19 30 10 16 1017.2 1017.2 0.0
28/01:30pm 26.3 24.5 15.4 51 6.6 ESE 19 28 10 15 1017.6 1017.6 0.0
28/01:00pm 26.6 25.1 15.3 50 6.9 SSE 17 26 9 14 1017.8 1017.8 0.0
28/12:30pm 26.9 25.5 15.6 50 6.9 SE 17 28 9 15 1018.3 1018.3 0.0
28/12:00pm 26.3 24.2 14.7 48 6.9 SE 19 32 10 17 1018.7 1018.7 0.0
28/11:30am 26.9 24.7 15.0 48 7.2 SE 20 32 11 17 1018.8 1018.8 0.0
28/11:00am 26.8 24.6 14.5 46 7.4 SE 19 33 10 18 1019.2 1019.2 0.0
28/10:30am 26.1 23.5 13.9 47 7.2 ESE 20 35 11 19 1019.6 1019.6 0.0
28/10:00am 26.0 23.3 13.5 46 7.3 SE 20 33 11 18 1019.8 1019.8 0.0
28/09:30am 25.1 21.8 12.7 46 7.1 ESE 22 37 12 20 1019.8 1019.8 0.0
28/09:00am 24.7 21.0 12.6 47 6.9 SE 24 41 13 22 1019.6 1019.6 0.0
28/08:30am 24.3 21.6 12.9 49 6.6 SE 19 35 10 19 1019.4 1019.4 0.0
28/08:00am 23.8 21.8 12.8 50 6.3 SE 15 35 8 19 1019.3 1019.3 0.0
28/07:30am 23.2 21.7 13.1 53 5.8 SE 13 26 7 14 1019.0 1019.0 0.0
28/07:00am 22.8 21.0 13.3 55 5.5 SE 15 30 8 16 1018.6 1018.6 0.0
28/06:30am 22.9 20.7 12.2 51 6.1 SE 15 30 8 16 1018.4 1018.4 0.0
28/06:00am 23.2 21.1 12.5 51 6.1 SE 15 24 8 13 1018.5 1018.5 0.0
28/05:30am 23.4 21.6 14.4 57 5.3 SSE 17 30 9 16 1017.9 1017.9 0.0
28/05:00am 23.7 22.6 14.4 56 5.5 SSE 13 26 7 14 1017.7 1017.7 0.0
28/04:30am 24.1 22.1 13.9 53 6.0 SE 17 32 9 17 1017.5 1017.5 0.0
28/04:00am 24.0 22.8 15.0 57 5.4 SE 15 28 8 15 1017.2 1017.2 0.0
28/03:30am 24.2 23.0 15.1 56 5.4 SE 15 26 8 14 1017.3 1017.3 0.0
28/03:00am 24.5 22.9 15.1 55 5.6 SE 17 30 9 16 1017.2 1017.2 0.0
28/02:30am 24.8 23.2 15.1 54 5.8 SE 17 32 9 17 1017.2 1017.2 0.0
28/02:00am 24.9 23.8 15.2 54 5.8 SE 15 28 8 15 1017.3 1017.3 0.0
28/01:30am 25.0 24.3 15.3 55 5.8 SE 13 24 7 13 1017.3 1017.3 0.0
28/01:00am 24.9 24.5 16.3 59 5.3 SE 13 26 7 14 1017.2 1017.2 0.0
28/12:30am 22.8 24.7 18.6 77 2.6 SE 6 9 3 5 1017.2 1017.2 0.0
28/12:00am 22.9 24.9 19.1 79 2.4 SE 7 13 4 7 1017.4 1017.4 0.0
 
Date/Time
CST
Temp
°C
App
Temp
°C
Dew
Point
Rel
Hum
%
Delta-T
°C
Wind Press
QNH
hPa
Press
MSL
hPa
Rain
since 9 am
mm
Dir
 
Spd
km/h
Gust
km/h
Spd
kts
Gust
kts
27/11:30pm 22.9 25.1 19.1 79 2.4 ESE 6 9 3 5 1017.7 1017.7 0.0
27/11:00pm 23.4 25.0 19.1 77 2.7 ESE 9 13 5 7 1017.9 1017.9 0.0
27/10:30pm 23.7 24.4 18.8 74 3.1 ESE 13 20 7 11 1018.2 1018.2 0.0
27/10:00pm 23.8 24.1 17.8 69 3.7 ESE 13 20 7 11 1018.2 1018.2 0.0
27/09:30pm 24.6 23.8 16.1 59 5.2 ESE 15 24 8 13 1018.1 1018.1 0.0
27/09:00pm 24.5 24.4 14.9 55 5.7 ESE 9 15 5 8 1018.0 1018.0 0.0
27/08:30pm 24.4 23.9 14.8 55 5.7 ESE 11 22 6 12 1017.9 1017.9 0.0
27/08:00pm 24.2 23.6 14.6 55 5.7 ESE 11 19 6 10 1017.9 1017.9 0.0
27/07:30pm 24.2 23.7 14.9 56 5.5 ESE 11 19 6 10 1017.7 1017.7 0.0
27/07:00pm 24.4 24.2 14.8 55 5.7 ESE 9 15 5 8 1017.6 1017.6 0.0
27/06:30pm 24.6 23.6 14.7 54 5.9 SE 13 20 7 11 1017.5 1017.5 0.0
27/06:00pm 25.2 23.7 14.3 50 6.5 SE 15 24 8 13 1017.3 1017.3 0.0
27/05:30pm 25.9 24.9 14.7 50 6.7 SE 13 22 7 12 1017.1 1017.1 0.0
27/05:00pm 26.3 24.9 14.4 48 7.1 SE 15 35 8 19 1016.9 1016.9 0.0
27/04:30pm 26.3 24.6 14.7 48 7.0 SE 17 30 9 16 1016.7 1016.7 0.0
27/04:00pm 27.4 26.3 15.4 48 7.3 SE 15 22 8 12 1016.6 1016.6 0.0
27/03:30pm 27.9 26.1 15.5 46 7.6 SE 19 30 10 16 1016.5 1016.5 0.0
27/03:00pm 28.3 26.8 15.2 44 8.0 ESE 17 30 9 16 1016.5 1016.5 0.0
27/02:30pm 28.5 27.2 15.8 46 7.8 SE 17 26 9 14 1016.7 1016.7 0.0
27/02:00pm 28.1 26.6 15.4 46 7.8 SSE 17 30 9 16 1017.0 1017.0 0.0
27/01:30pm 29.5 28.7 16.0 44 8.4 SE 15 26 8 14 1017.3 1017.3 0.0
27/01:00pm 28.8 27.2 15.0 43 8.4 SE 17 30 9 16 1017.6 1017.6 0.0
27/12:30pm 29.6 28.4 16.1 44 8.4 SE 17 30 9 16 1018.0 1018.0 0.0
27/12:00pm 28.9 27.2 15.8 45 8.1 SE 19 30 10 16 1018.6 1018.6 0.0
27/11:30am 29.1 28.0 16.3 46 7.9 SE 17 28 9 15 1019.0 1019.0 0.0
27/11:00am 28.2 26.9 16.8 50 7.1 SE 19 30 10 16 1019.4 1019.4 0.0
27/10:30am 28.0 27.2 18.1 55 6.3 SE 19 32 10 17 1019.7 1019.7 0.0
27/10:00am 27.4 26.2 17.6 55 6.2 ESE 20 33 11 18 1019.8 1019.8 0.0
27/09:30am 27.1 26.5 18.4 59 5.5 SE 19 33 10 18 1019.8 1019.8 0.0
27/09:00am 26.4 27.4 19.5 66 4.4 SE 13 22 7 12 1019.8 1019.8 0.0
27/08:30am 25.0 27.3 21.3 80 2.4 SSE 11 17 6 9 1019.8 1019.8 0.0
27/08:00am 23.8 26.4 21.9 89 1.3 SE 11 19 6 10 1019.3 1019.3 0.0
27/07:30am 22.7 25.9 22.4 98 0.2 SSE 9 17 5 9 1019.1 1019.1 0.0
27/07:00am 22.1 25.2 22.1 100 0.0 SSE 9 13 5 7 1018.6 1018.6 0.0
27/06:32am 21.8 24.7 21.8 100 0.0 S 9 15 5 8 1018.3 1018.3 0.0
27/06:30am 21.8 24.7 21.8 100 0.0 SSE 9 15 5 8 1018.3 1018.3 0.0
27/06:00am 19.9 22.2 19.9 100 0.0 SSW 7 11 4 6 1018.0 1018.0 0.0
27/05:57am 19.7 22.0 19.5 99 0.1 SSW 6 11 3 6 1017.9 1017.9 0.0
27/05:30am 18.8 21.7 18.1 96 0.4 CALM 0 0 0 0 1017.0 1017.0 0.0
27/05:00am 19.2 22.2 18.5 96 0.4 CALM 0 0 0 0 1016.8 1016.8 0.0
27/04:30am 19.3 22.2 18.3 94 0.6 CALM 0 0 0 0 1016.8 1016.8 0.0
27/04:00am 19.8 23.0 18.8 94 0.6 CALM 0 0 0 0 1016.9 1016.9 0.0
27/03:30am 20.2 23.5 19.0 93 0.8 CALM 0 0 0 0 1016.9 1016.9 0.0
27/03:00am 20.9 24.2 19.2 90 1.1 CALM 0 0 0 0 1017.1 1017.1 0.0
27/02:30am 21.3 24.9 19.8 91 1.0 CALM 0 0 0 0 1017.2 1017.2 0.0
27/02:00am 21.5 25.3 20.1 92 0.9 CALM 0 0 0 0 1017.2 1017.2 0.0
27/01:30am 21.7 25.4 20.0 90 1.1 CALM 0 0 0 0 1017.3 1017.3 0.0
27/01:00am 22.4 25.2 20.5 89 1.2 E 6 6 3 3 1017.7 1017.7 0.0
27/12:30am 22.1 24.7 20.4 90 1.1 ESE 7 9 4 5 1018.1 1018.1 0.0
27/12:00am 22.0 24.5 19.9 88 1.3 E 6 7 3 4 1018.2 1018.2 0.0
 
Date/Time
CST
Temp
°C
App
Temp
°C
Dew
Point
Rel
Hum
%
Delta-T
°C
Wind Press
QNH
hPa
Press
MSL
hPa
Rain
since 9 am
mm
Dir
 
Spd
km/h
Gust
km/h
Spd
kts
Gust
kts
26/11:30pm 21.6 25.0 19.3 87 1.5 CALM 0 0 0 0 1018.1 1018.1 0.0

Other Formats:

Comma delimited format used in spreadsheet applications
http://www.bom.gov.au/fwo/IDD60801/IDD60801.94153.axf

JavaScript Object Notation format (JSON) in row-major order
http://www.bom.gov.au/fwo/IDD60801/IDD60801.94153.json